sensor_id;sensor_type;location;lat;lon;timestamp;temperature;humidity
54082;DHT22;39986;50.770;0.266;2022-11-15T00:01:36;12.80;99.90
54082;DHT22;39986;50.770;0.266;2022-11-15T00:04:04;12.80;99.90
54082;DHT22;39986;50.770;0.266;2022-11-15T00:06:29;12.90;99.90
54082;DHT22;39986;50.770;0.266;2022-11-15T00:08:57;12.90;99.90
54082;DHT22;39986;50.770;0.266;2022-11-15T00:11:23;12.90;99.90
54082;DHT22;39986;50.770;0.266;2022-11-15T00:13:48;12.80;99.90
54082;DHT22;39986;50.770;0.266;2022-11-15T00:16:14;13.40;99.90
54082;DHT22;39986;50.770;0.266;2022-11-15T00:18:40;12.80;99.90
54082;DHT22;39986;50.770;0.266;2022-11-15T00:21:07;12.90;99.90
54082;DHT22;39986;50.770;0.266;2022-11-15T00:23:33;12.90;99.90
54082;DHT22;39986;50.770;0.266;2022-11-15T00:25:59;13.00;99.90
54082;DHT22;39986;50.770;0.266;2022-11-15T00:28:25;13.10;99.90
54082;DHT22;39986;50.770;0.266;2022-11-15T00:30:50;13.80;99.90
54082;DHT22;39986;50.770;0.266;2022-11-15T00:33:16;13.10;99.90
54082;DHT22;39986;50.770;0.266;2022-11-15T00:35:43;13.00;99.90
54082;DHT22;39986;50.770;0.266;2022-11-15T00:38:08;12.90;99.90
54082;DHT22;39986;50.770;0.266;2022-11-15T00:40:34;13.00;99.90
54082;DHT22;39986;50.770;0.266;2022-11-15T00:43:00;13.00;99.90
54082;DHT22;39986;50.770;0.266;2022-11-15T00:45:25;13.00;99.90
54082;DHT22;39986;50.770;0.266;2022-11-15T00:47:51;12.90;99.90
54082;DHT22;39986;50.770;0.266;2022-11-15T00:50:17;13.30;99.90
54082;DHT22;39986;50.770;0.266;2022-11-15T00:52:43;13.00;99.90
54082;DHT22;39986;50.770;0.266;2022-11-15T00:55:13;13.10;99.90
54082;DHT22;39986;50.770;0.266;2022-11-15T00:57:39;13.00;99.90
54082;DHT22;39986;50.770;0.266;2022-11-15T01:00:05;13.00;99.90
54082;DHT22;39986;50.770;0.266;2022-11-15T01:02:30;12.90;99.90
54082;DHT22;39986;50.770;0.266;2022-11-15T01:04:56;13.00;99.90
54082;DHT22;39986;50.770;0.266;2022-11-15T01:07:21;12.90;99.90
54082;DHT22;39986;50.770;0.266;2022-11-15T01:09:47;13.20;99.90
54082;DHT22;39986;50.770;0.266;2022-11-15T01:12:12;12.90;99.90
54082;DHT22;39986;50.770;0.266;2022-11-15T01:14:38;12.90;99.90
54082;DHT22;39986;50.770;0.266;2022-11-15T01:17:04;12.90;99.90
54082;DHT22;39986;50.770;0.266;2022-11-15T01:19:29;12.90;99.90
54082;DHT22;39986;50.770;0.266;2022-11-15T01:21:55;12.90;99.90
54082;DHT22;39986;50.770;0.266;2022-11-15T01:24:20;12.90;99.90
54082;DHT22;39986;50.770;0.266;2022-11-15T01:26:46;12.90;99.90
54082;DHT22;39986;50.770;0.266;2022-11-15T01:29:12;12.90;99.90
54082;DHT22;39986;50.770;0.266;2022-11-15T01:31:37;12.90;99.90
54082;DHT22;39986;50.770;0.266;2022-11-15T01:34:04;12.90;99.90
54082;DHT22;39986;50.770;0.266;2022-11-15T01:36:30;12.90;99.90
54082;DHT22;39986;50.770;0.266;2022-11-15T01:38:56;12.90;99.90
54082;DHT22;39986;50.770;0.266;2022-11-15T01:41:23;12.90;99.90
54082;DHT22;39986;50.770;0.266;2022-11-15T01:43:54;13.00;99.90
54082;DHT22;39986;50.770;0.266;2022-11-15T01:48:50;13.00;99.90
54082;DHT22;39986;50.770;0.266;2022-11-15T01:51:19;13.20;99.90
54082;DHT22;39986;50.770;0.266;2022-11-15T01:53:47;13.10;99.90
54082;DHT22;39986;50.770;0.266;2022-11-15T01:56:16;13.10;99.90
54082;DHT22;39986;50.770;0.266;2022-11-15T01:58:42;13.10;99.90
54082;DHT22;39986;50.770;0.266;2022-11-15T02:01:08;13.10;99.90
54082;DHT22;39986;50.770;0.266;2022-11-15T02:03:36;13.00;99.90
54082;DHT22;39986;50.770;0.266;2022-11-15T02:06:05;13.00;99.90
54082;DHT22;39986;50.770;0.266;2022-11-15T02:08:31;13.00;99.90
54082;DHT22;39986;50.770;0.266;2022-11-15T02:10:58;13.10;99.90
54082;DHT22;39986;50.770;0.266;2022-11-15T02:13:24;13.10;99.90
54082;DHT22;39986;50.770;0.266;2022-11-15T02:15:58;13.10;99.90
54082;DHT22;39986;50.770;0.266;2022-11-15T02:18:30;13.10;99.90
54082;DHT22;39986;50.770;0.266;2022-11-15T02:23:53;13.20;99.90
54082;DHT22;39986;50.770;0.266;2022-11-15T02:29:15;13.10;99.90
54082;DHT22;39986;50.770;0.266;2022-11-15T02:39:25;13.20;99.90
54082;DHT22;39986;50.770;0.266;2022-11-15T02:44:23;13.20;99.90
54082;DHT22;39986;50.770;0.266;2022-11-15T02:46:51;13.20;99.90
54082;DHT22;39986;50.770;0.266;2022-11-15T02:49:36;13.20;99.90
54082;DHT22;39986;50.770;0.266;2022-11-15T02:52:03;13.10;99.90
54082;DHT22;39986;50.770;0.266;2022-11-15T02:54:32;13.00;99.90
54082;DHT22;39986;50.770;0.266;2022-11-15T02:57:02;13.20;99.90
54082;DHT22;39986;50.770;0.266;2022-11-15T03:01:57;13.00;99.90
54082;DHT22;39986;50.770;0.266;2022-11-15T03:04:29;13.00;99.90
54082;DHT22;39986;50.770;0.266;2022-11-15T03:09:58;13.10;99.90
54082;DHT22;39986;50.770;0.266;2022-11-15T03:15:29;13.10;99.90
54082;DHT22;39986;50.770;0.266;2022-11-15T03:18:21;13.20;99.90
54082;DHT22;39986;50.770;0.266;2022-11-15T03:20:48;13.20;99.90
54082;DHT22;39986;50.770;0.266;2022-11-15T03:23:14;13.20;99.90
54082;DHT22;39986;50.770;0.266;2022-11-15T03:25:40;13.20;99.90
54082;DHT22;39986;50.770;0.266;2022-11-15T03:28:07;13.20;99.90
54082;DHT22;39986;50.770;0.266;2022-11-15T03:30:34;13.30;99.90
54082;DHT22;39986;50.770;0.266;2022-11-15T03:33:01;13.30;99.90
54082;DHT22;39986;50.770;0.266;2022-11-15T03:35:28;13.40;99.90
54082;DHT22;39986;50.770;0.266;2022-11-15T03:40:40;13.40;99.90
54082;DHT22;39986;50.770;0.266;2022-11-15T03:43:29;13.30;99.90
54082;DHT22;39986;50.770;0.266;2022-11-15T03:46:01;13.30;99.90
54082;DHT22;39986;50.770;0.266;2022-11-15T03:48:30;13.30;99.90
54082;DHT22;39986;50.770;0.266;2022-11-15T03:50:56;13.50;99.90
54082;DHT22;39986;50.770;0.266;2022-11-15T03:53:21;13.20;99.90
54082;DHT22;39986;50.770;0.266;2022-11-15T03:55:47;13.20;99.90
54082;DHT22;39986;50.770;0.266;2022-11-15T03:58:13;13.20;99.90
54082;DHT22;39986;50.770;0.266;2022-11-15T04:00:38;13.20;99.90
54082;DHT22;39986;50.770;0.266;2022-11-15T04:03:04;13.20;99.90
54082;DHT22;39986;50.770;0.266;2022-11-15T04:05:29;13.20;99.90
54082;DHT22;39986;50.770;0.266;2022-11-15T04:07:55;13.20;99.90
54082;DHT22;39986;50.770;0.266;2022-11-15T04:10:21;13.10;99.90
54082;DHT22;39986;50.770;0.266;2022-11-15T04:12:46;13.10;99.90
54082;DHT22;39986;50.770;0.266;2022-11-15T04:15:13;13.10;99.90
54082;DHT22;39986;50.770;0.266;2022-11-15T04:17:43;13.10;99.90
54082;DHT22;39986;50.770;0.266;2022-11-15T04:20:11;13.10;99.90
54082;DHT22;39986;50.770;0.266;2022-11-15T04:22:56;13.00;99.90
54082;DHT22;39986;50.770;0.266;2022-11-15T04:25:41;13.10;99.90
54082;DHT22;39986;50.770;0.266;2022-11-15T04:28:06;13.10;99.90
54082;DHT22;39986;50.770;0.266;2022-11-15T04:30:32;13.10;99.90
54082;DHT22;39986;50.770;0.266;2022-11-15T04:32:58;13.10;99.90
54082;DHT22;39986;50.770;0.266;2022-11-15T04:35:23;13.10;99.90
54082;DHT22;39986;50.770;0.266;2022-11-15T04:37:49;13.10;99.90
54082;DHT22;39986;50.770;0.266;2022-11-15T04:40:15;13.10;99.90
54082;DHT22;39986;50.770;0.266;2022-11-15T04:42:41;13.10;99.90
54082;DHT22;39986;50.770;0.266;2022-11-15T04:45:07;13.10;99.90
54082;DHT22;39986;50.770;0.266;2022-11-15T04:47:32;13.10;99.90
54082;DHT22;39986;50.770;0.266;2022-11-15T04:49:59;13.00;99.90
54082;DHT22;39986;50.770;0.266;2022-11-15T04:52:25;13.00;99.90
54082;DHT22;39986;50.770;0.266;2022-11-15T04:54:50;13.00;99.90
54082;DHT22;39986;50.770;0.266;2022-11-15T04:57:16;13.00;99.90
54082;DHT22;39986;50.770;0.266;2022-11-15T04:59:41;12.90;99.90
54082;DHT22;39986;50.770;0.266;2022-11-15T05:02:09;13.50;99.90
54082;DHT22;39986;50.770;0.266;2022-11-15T05:04:35;12.90;99.90
54082;DHT22;39986;50.770;0.266;2022-11-15T05:07:00;12.90;99.90
54082;DHT22;39986;50.770;0.266;2022-11-15T05:09:27;12.90;99.90
54082;DHT22;39986;50.770;0.266;2022-11-15T05:11:52;12.90;99.90
54082;DHT22;39986;50.770;0.266;2022-11-15T05:14:18;12.90;99.90
54082;DHT22;39986;50.770;0.266;2022-11-15T05:16:44;12.90;99.90
54082;DHT22;39986;50.770;0.266;2022-11-15T05:19:09;13.70;99.90
54082;DHT22;39986;50.770;0.266;2022-11-15T05:21:35;12.90;99.90
54082;DHT22;39986;50.770;0.266;2022-11-15T05:24:01;12.90;99.90
54082;DHT22;39986;50.770;0.266;2022-11-15T05:26:29;12.90;99.90
54082;DHT22;39986;50.770;0.266;2022-11-15T05:28:56;12.70;99.90
54082;DHT22;39986;50.770;0.266;2022-11-15T05:31:22;12.90;99.90
54082;DHT22;39986;50.770;0.266;2022-11-15T05:33:48;12.90;99.90
54082;DHT22;39986;50.770;0.266;2022-11-15T05:36:16;12.90;99.90
54082;DHT22;39986;50.770;0.266;2022-11-15T05:38:45;12.90;99.90
54082;DHT22;39986;50.770;0.266;2022-11-15T05:41:11;13.30;99.90
54082;DHT22;39986;50.770;0.266;2022-11-15T05:43:39;12.90;99.90
54082;DHT22;39986;50.770;0.266;2022-11-15T05:46:06;12.80;99.90
54082;DHT22;39986;50.770;0.266;2022-11-15T05:48:32;12.80;99.90
54082;DHT22;39986;50.770;0.266;2022-11-15T05:50:59;12.80;99.90
54082;DHT22;39986;50.770;0.266;2022-11-15T05:53:25;12.90;99.90
54082;DHT22;39986;50.770;0.266;2022-11-15T05:55:51;13.20;99.90
54082;DHT22;39986;50.770;0.266;2022-11-15T05:58:17;12.90;99.90
54082;DHT22;39986;50.770;0.266;2022-11-15T06:00:44;11.50;99.90
54082;DHT22;39986;50.770;0.266;2022-11-15T06:03:10;12.80;99.90
54082;DHT22;39986;50.770;0.266;2022-11-15T06:05:35;12.90;99.90
54082;DHT22;39986;50.770;0.266;2022-11-15T06:08:01;12.80;99.90
54082;DHT22;39986;50.770;0.266;2022-11-15T06:10:27;12.90;99.90
54082;DHT22;39986;50.770;0.266;2022-11-15T06:12:56;12.90;99.90
54082;DHT22;39986;50.770;0.266;2022-11-15T06:15:21;12.90;99.90
54082;DHT22;39986;50.770;0.266;2022-11-15T06:17:47;12.90;99.90
54082;DHT22;39986;50.770;0.266;2022-11-15T06:20:12;13.10;99.90
54082;DHT22;39986;50.770;0.266;2022-11-15T06:22:38;12.80;99.90
54082;DHT22;39986;50.770;0.266;2022-11-15T06:25:04;12.90;99.90
54082;DHT22;39986;50.770;0.266;2022-11-15T06:27:29;12.90;99.90
54082;DHT22;39986;50.770;0.266;2022-11-15T06:29:56;12.90;99.90
54082;DHT22;39986;50.770;0.266;2022-11-15T06:32:22;12.80;99.90
54082;DHT22;39986;50.770;0.266;2022-11-15T06:34:48;12.90;99.90
54082;DHT22;39986;50.770;0.266;2022-11-15T06:37:13;12.90;99.90
54082;DHT22;39986;50.770;0.266;2022-11-15T06:39:41;12.90;99.90
54082;DHT22;39986;50.770;0.266;2022-11-15T06:42:08;12.90;99.90
54082;DHT22;39986;50.770;0.266;2022-11-15T06:44:33;12.90;99.90
54082;DHT22;39986;50.770;0.266;2022-11-15T06:46:59;12.90;99.90
54082;DHT22;39986;50.770;0.266;2022-11-15T06:49:24;12.90;99.90
54082;DHT22;39986;50.770;0.266;2022-11-15T06:51:50;13.00;99.90
54082;DHT22;39986;50.770;0.266;2022-11-15T06:54:15;12.90;99.90
54082;DHT22;39986;50.770;0.266;2022-11-15T06:56:43;12.90;99.90
54082;DHT22;39986;50.770;0.266;2022-11-15T06:59:09;12.90;99.90
54082;DHT22;39986;50.770;0.266;2022-11-15T07:01:35;12.90;99.90
54082;DHT22;39986;50.770;0.266;2022-11-15T07:04:00;14.80;99.90
54082;DHT22;39986;50.770;0.266;2022-11-15T07:06:26;12.90;99.90
54082;DHT22;39986;50.770;0.266;2022-11-15T07:08:54;12.90;99.90
54082;DHT22;39986;50.770;0.266;2022-11-15T07:11:19;12.80;99.90
54082;DHT22;39986;50.770;0.266;2022-11-15T07:13:45;12.80;99.90
54082;DHT22;39986;50.770;0.266;2022-11-15T07:16:10;12.90;99.90
54082;DHT22;39986;50.770;0.266;2022-11-15T07:18:37;12.80;99.90
54082;DHT22;39986;50.770;0.266;2022-11-15T07:21:03;12.80;99.90
54082;DHT22;39986;50.770;0.266;2022-11-15T07:23:38;12.90;99.90
54082;DHT22;39986;50.770;0.266;2022-11-15T07:26:15;13.10;99.90
54082;DHT22;39986;50.770;0.266;2022-11-15T07:28:41;12.90;99.90
54082;DHT22;39986;50.770;0.266;2022-11-15T07:31:07;12.90;99.90
54082;DHT22;39986;50.770;0.266;2022-11-15T07:33:34;10.70;99.90
54082;DHT22;39986;50.770;0.266;2022-11-15T07:36:00;12.60;99.90
54082;DHT22;39986;50.770;0.266;2022-11-15T07:38:27;12.70;99.90
54082;DHT22;39986;50.770;0.266;2022-11-15T07:40:58;12.40;99.90
54082;DHT22;39986;50.770;0.266;2022-11-15T07:43:24;12.40;99.90
54082;DHT22;39986;50.770;0.266;2022-11-15T07:45:50;12.40;99.90
54082;DHT22;39986;50.770;0.266;2022-11-15T07:48:17;12.40;99.90
54082;DHT22;39986;50.770;0.266;2022-11-15T07:50:42;12.70;99.90
54082;DHT22;39986;50.770;0.266;2022-11-15T07:53:08;13.00;99.90
54082;DHT22;39986;50.770;0.266;2022-11-15T07:55:34;12.50;99.90
54082;DHT22;39986;50.770;0.266;2022-11-15T07:58:03;12.50;99.90
54082;DHT22;39986;50.770;0.266;2022-11-15T08:00:29;12.50;99.90
54082;DHT22;39986;50.770;0.266;2022-11-15T08:03:02;12.40;99.90
54082;DHT22;39986;50.770;0.266;2022-11-15T08:05:53;12.60;99.90
54082;DHT22;39986;50.770;0.266;2022-11-15T08:08:19;12.30;99.90
54082;DHT22;39986;50.770;0.266;2022-11-15T08:10:45;12.30;99.90
54082;DHT22;39986;50.770;0.266;2022-11-15T08:13:14;12.20;99.90
54082;DHT22;39986;50.770;0.266;2022-11-15T08:15:39;12.30;99.90
54082;DHT22;39986;50.770;0.266;2022-11-15T08:18:06;12.20;99.90
54082;DHT22;39986;50.770;0.266;2022-11-15T08:20:32;12.10;99.90
54082;DHT22;39986;50.770;0.266;2022-11-15T08:23:02;13.10;99.90
54082;DHT22;39986;50.770;0.266;2022-11-15T08:25:28;12.10;99.90
54082;DHT22;39986;50.770;0.266;2022-11-15T08:27:58;12.10;99.90
54082;DHT22;39986;50.770;0.266;2022-11-15T08:30:27;12.30;99.90
54082;DHT22;39986;50.770;0.266;2022-11-15T08:32:57;11.80;99.90
54082;DHT22;39986;50.770;0.266;2022-11-15T08:35:26;12.10;99.90
54082;DHT22;39986;50.770;0.266;2022-11-15T08:37:53;10.40;99.90
54082;DHT22;39986;50.770;0.266;2022-11-15T08:40:28;12.00;99.90
54082;DHT22;39986;50.770;0.266;2022-11-15T08:42:54;12.10;99.90
54082;DHT22;39986;50.770;0.266;2022-11-15T08:45:31;11.90;99.90
54082;DHT22;39986;50.770;0.266;2022-11-15T08:47:57;11.10;99.90
54082;DHT22;39986;50.770;0.266;2022-11-15T08:50:24;10.60;99.90
54082;DHT22;39986;50.770;0.266;2022-11-15T08:52:53;11.90;99.90
54082;DHT22;39986;50.770;0.266;2022-11-15T08:55:18;11.20;99.90
54082;DHT22;39986;50.770;0.266;2022-11-15T08:57:50;12.20;99.90
54082;DHT22;39986;50.770;0.266;2022-11-15T09:00:20;10.80;99.90
54082;DHT22;39986;50.770;0.266;2022-11-15T09:02:48;12.00;99.90
54082;DHT22;39986;50.770;0.266;2022-11-15T09:05:17;12.10;99.90
54082;DHT22;39986;50.770;0.266;2022-11-15T09:07:46;12.20;99.90
54082;DHT22;39986;50.770;0.266;2022-11-15T09:10:11;11.10;99.90
54082;DHT22;39986;50.770;0.266;2022-11-15T09:13:02;12.10;99.90
54082;DHT22;39986;50.770;0.266;2022-11-15T09:15:31;12.10;99.90
54082;DHT22;39986;50.770;0.266;2022-11-15T09:18:04;12.40;99.90
54082;DHT22;39986;50.770;0.266;2022-11-15T09:20:30;12.10;99.90
54082;DHT22;39986;50.770;0.266;2022-11-15T09:23:06;12.10;99.90
54082;DHT22;39986;50.770;0.266;2022-11-15T09:25:32;12.40;99.90
54082;DHT22;39986;50.770;0.266;2022-11-15T09:27:57;12.10;99.90
54082;DHT22;39986;50.770;0.266;2022-11-15T09:30:28;12.20;99.90
54082;DHT22;39986;50.770;0.266;2022-11-15T09:32:55;10.40;99.90
54082;DHT22;39986;50.770;0.266;2022-11-15T09:35:22;12.20;99.90
54082;DHT22;39986;50.770;0.266;2022-11-15T09:37:51;11.90;99.90
54082;DHT22;39986;50.770;0.266;2022-11-15T09:40:19;12.30;99.90
54082;DHT22;39986;50.770;0.266;2022-11-15T09:48:37;12.30;99.90
54082;DHT22;39986;50.770;0.266;2022-11-15T09:51:41;12.20;99.90
54082;DHT22;39986;50.770;0.266;2022-11-15T09:56:52;12.00;99.90
54082;DHT22;39986;50.770;0.266;2022-11-15T10:04:21;12.70;99.90
54082;DHT22;39986;50.770;0.266;2022-11-15T10:06:52;12.30;99.90
54082;DHT22;39986;50.770;0.266;2022-11-15T10:09:21;12.20;99.90
54082;DHT22;39986;50.770;0.266;2022-11-15T10:11:49;12.50;99.90
54082;DHT22;39986;50.770;0.266;2022-11-15T10:14:23;12.10;99.90
54082;DHT22;39986;50.770;0.266;2022-11-15T10:19:46;12.20;99.90
54082;DHT22;39986;50.770;0.266;2022-11-15T10:22:24;12.30;99.90
54082;DHT22;39986;50.770;0.266;2022-11-15T10:24:58;12.10;99.90
54082;DHT22;39986;50.770;0.266;2022-11-15T10:27:56;12.50;99.90
54082;DHT22;39986;50.770;0.266;2022-11-15T10:30:34;12.20;99.90
54082;DHT22;39986;50.770;0.266;2022-11-15T10:33:39;11.00;99.90
54082;DHT22;39986;50.770;0.266;2022-11-15T10:36:14;12.20;99.90
54082;DHT22;39986;50.770;0.266;2022-11-15T10:41:20;12.50;99.90
54082;DHT22;39986;50.770;0.266;2022-11-15T10:46:37;12.40;99.90
54082;DHT22;39986;50.770;0.266;2022-11-15T10:52:04;11.20;99.90
54082;DHT22;39986;50.770;0.266;2022-11-15T10:54:44;12.50;99.90
54082;DHT22;39986;50.770;0.266;2022-11-15T10:57:14;11.40;99.90
54082;DHT22;39986;50.770;0.266;2022-11-15T10:59:54;12.20;99.90
54082;DHT22;39986;50.770;0.266;2022-11-15T11:02:56;12.30;99.90
54082;DHT22;39986;50.770;0.266;2022-11-15T11:05:32;12.20;99.90
54082;DHT22;39986;50.770;0.266;2022-11-15T11:08:03;12.30;99.90
54082;DHT22;39986;50.770;0.266;2022-11-15T11:10:40;12.30;99.90
54082;DHT22;39986;50.770;0.266;2022-11-15T11:18:40;12.50;99.90
54082;DHT22;39986;50.770;0.266;2022-11-15T11:21:10;12.60;99.90
54082;DHT22;39986;50.770;0.266;2022-11-15T11:23:44;12.50;99.90
54082;DHT22;39986;50.770;0.266;2022-11-15T11:32:32;12.50;99.90
54082;DHT22;39986;50.770;0.266;2022-11-15T11:40:28;12.50;99.90
54082;DHT22;39986;50.770;0.266;2022-11-15T11:48:41;11.60;99.90
54082;DHT22;39986;50.770;0.266;2022-11-15T11:51:20;14.80;99.90
54082;DHT22;39986;50.770;0.266;2022-11-15T11:54:00;11.00;99.90
54082;DHT22;39986;50.770;0.266;2022-11-15T11:56:29;12.70;99.90
54082;DHT22;39986;50.770;0.266;2022-11-15T11:59:25;12.60;99.90
54082;DHT22;39986;50.770;0.266;2022-11-15T12:02:01;13.10;99.90
54082;DHT22;39986;50.770;0.266;2022-11-15T12:04:36;11.00;99.90
54082;DHT22;39986;50.770;0.266;2022-11-15T12:07:25;12.80;99.90
54082;DHT22;39986;50.770;0.266;2022-11-15T12:10:20;13.00;99.90
54082;DHT22;39986;50.770;0.266;2022-11-15T12:13:11;11.20;99.90
54082;DHT22;39986;50.770;0.266;2022-11-15T12:16:10;12.70;99.90
54082;DHT22;39986;50.770;0.266;2022-11-15T12:19:03;12.90;99.90
54082;DHT22;39986;50.770;0.266;2022-11-15T12:21:59;12.70;99.90
54082;DHT22;39986;50.770;0.266;2022-11-15T12:24:45;11.80;99.90
54082;DHT22;39986;50.770;0.266;2022-11-15T12:27:20;12.90;99.90
54082;DHT22;39986;50.770;0.266;2022-11-15T12:29:56;12.80;99.90
54082;DHT22;39986;50.770;0.266;2022-11-15T12:32:34;12.80;99.90
54082;DHT22;39986;50.770;0.266;2022-11-15T12:35:24;12.70;99.90
54082;DHT22;39986;50.770;0.266;2022-11-15T12:37:51;12.50;99.90
54082;DHT22;39986;50.770;0.266;2022-11-15T12:40:27;11.50;99.90
54082;DHT22;39986;50.770;0.266;2022-11-15T12:45:46;13.50;99.90
54082;DHT22;39986;50.770;0.266;2022-11-15T13:02:39;13.70;99.90
54082;DHT22;39986;50.770;0.266;2022-11-15T13:08:34;13.70;99.90
54082;DHT22;39986;50.770;0.266;2022-11-15T13:11:08;11.80;99.90
54082;DHT22;39986;50.770;0.266;2022-11-15T13:13:46;13.60;99.90
54082;DHT22;39986;50.770;0.266;2022-11-15T13:16:19;12.00;99.90
54082;DHT22;39986;50.770;0.266;2022-11-15T13:18:52;15.40;99.90
54082;DHT22;39986;50.770;0.266;2022-11-15T13:21:22;12.90;99.90
54082;DHT22;39986;50.770;0.266;2022-11-15T13:24:12;15.70;99.90
54082;DHT22;39986;50.770;0.266;2022-11-15T13:26:59;14.90;99.90
54082;DHT22;39986;50.770;0.266;2022-11-15T13:29:40;13.80;99.90
54082;DHT22;39986;50.770;0.266;2022-11-15T13:32:16;13.90;99.90
54082;DHT22;39986;50.770;0.266;2022-11-15T13:34:56;13.80;99.90
54082;DHT22;39986;50.770;0.266;2022-11-15T13:39:54;13.90;99.90
54082;DHT22;39986;50.770;0.266;2022-11-15T13:42:20;11.90;99.90
54082;DHT22;39986;50.770;0.266;2022-11-15T13:47:27;14.20;99.90
54082;DHT22;39986;50.770;0.266;2022-11-15T13:50:02;13.90;99.90
54082;DHT22;39986;50.770;0.266;2022-11-15T13:52:34;12.40;99.90
54082;DHT22;39986;50.770;0.266;2022-11-15T13:55:11;13.80;99.90
54082;DHT22;39986;50.770;0.266;2022-11-15T13:57:57;13.80;99.90
54082;DHT22;39986;50.770;0.266;2022-11-15T14:03:29;13.40;99.90
54082;DHT22;39986;50.770;0.266;2022-11-15T14:06:10;13.60;99.90
54082;DHT22;39986;50.770;0.266;2022-11-15T14:08:42;13.40;99.90
54082;DHT22;39986;50.770;0.266;2022-11-15T14:11:54;13.50;99.90
54082;DHT22;39986;50.770;0.266;2022-11-15T14:14:50;15.00;99.90
54082;DHT22;39986;50.770;0.266;2022-11-15T14:17:20;15.70;99.90
54082;DHT22;39986;50.770;0.266;2022-11-15T14:19:57;16.50;99.90
54082;DHT22;39986;50.770;0.266;2022-11-15T14:22:35;16.40;99.90
54082;DHT22;39986;50.770;0.266;2022-11-15T14:25:20;13.90;99.90
54082;DHT22;39986;50.770;0.266;2022-11-15T14:30:49;16.70;99.90
54082;DHT22;39986;50.770;0.266;2022-11-15T14:33:25;17.20;99.90
54082;DHT22;39986;50.770;0.266;2022-11-15T14:38:45;16.60;99.90
54082;DHT22;39986;50.770;0.266;2022-11-15T14:41:34;16.60;99.90
54082;DHT22;39986;50.770;0.266;2022-11-15T14:44:21;15.30;99.90
54082;DHT22;39986;50.770;0.266;2022-11-15T14:46:49;13.00;99.90
54082;DHT22;39986;50.770;0.266;2022-11-15T14:49:36;15.10;99.90
54082;DHT22;39986;50.770;0.266;2022-11-15T14:52:10;15.00;99.90
54082;DHT22;39986;50.770;0.266;2022-11-15T14:54:44;14.90;99.90
54082;DHT22;39986;50.770;0.266;2022-11-15T14:57:21;15.00;99.90
54082;DHT22;39986;50.770;0.266;2022-11-15T14:59:47;14.40;99.90
54082;DHT22;39986;50.770;0.266;2022-11-15T15:02:21;14.50;99.90
54082;DHT22;39986;50.770;0.266;2022-11-15T15:04:55;14.30;99.90
54082;DHT22;39986;50.770;0.266;2022-11-15T15:07:30;14.40;99.90
54082;DHT22;39986;50.770;0.266;2022-11-15T15:10:06;14.60;99.90
54082;DHT22;39986;50.770;0.266;2022-11-15T15:12:38;14.40;99.90
54082;DHT22;39986;50.770;0.266;2022-11-15T15:15:13;14.60;99.90
54082;DHT22;39986;50.770;0.266;2022-11-15T15:17:47;14.50;99.90
54082;DHT22;39986;50.770;0.266;2022-11-15T15:20:13;14.40;99.90
54082;DHT22;39986;50.770;0.266;2022-11-15T15:22:43;13.50;99.90
54082;DHT22;39986;50.770;0.266;2022-11-15T15:25:20;14.30;99.90
54082;DHT22;39986;50.770;0.266;2022-11-15T15:27:48;14.90;99.90
54082;DHT22;39986;50.770;0.266;2022-11-15T15:30:17;14.50;99.90
54082;DHT22;39986;50.770;0.266;2022-11-15T15:32:44;13.20;99.90
54082;DHT22;39986;50.770;0.266;2022-11-15T15:35:12;14.00;99.90
54082;DHT22;39986;50.770;0.266;2022-11-15T15:37:41;13.90;99.90
54082;DHT22;39986;50.770;0.266;2022-11-15T15:40:10;13.90;99.90
54082;DHT22;39986;50.770;0.266;2022-11-15T15:42:37;13.90;99.90
54082;DHT22;39986;50.770;0.266;2022-11-15T15:45:05;13.80;99.90
54082;DHT22;39986;50.770;0.266;2022-11-15T15:47:31;13.70;99.90
54082;DHT22;39986;50.770;0.266;2022-11-15T15:49:59;13.70;99.90
54082;DHT22;39986;50.770;0.266;2022-11-15T15:52:24;13.60;99.90
54082;DHT22;39986;50.770;0.266;2022-11-15T15:54:50;13.70;99.90
54082;DHT22;39986;50.770;0.266;2022-11-15T15:57:15;13.70;99.90
54082;DHT22;39986;50.770;0.266;2022-11-15T15:59:41;13.70;99.90
54082;DHT22;39986;50.770;0.266;2022-11-15T16:02:11;13.60;99.90
54082;DHT22;39986;50.770;0.266;2022-11-15T16:04:37;12.80;99.90
54082;DHT22;39986;50.770;0.266;2022-11-15T16:07:03;13.30;99.90
54082;DHT22;39986;50.770;0.266;2022-11-15T16:09:29;13.30;99.90
54082;DHT22;39986;50.770;0.266;2022-11-15T16:12:14;13.10;99.90
54082;DHT22;39986;50.770;0.266;2022-11-15T16:14:41;13.10;99.90
54082;DHT22;39986;50.770;0.266;2022-11-15T16:17:09;13.00;99.90
54082;DHT22;39986;50.770;0.266;2022-11-15T16:19:40;13.40;99.90
54082;DHT22;39986;50.770;0.266;2022-11-15T16:22:06;13.00;99.90
54082;DHT22;39986;50.770;0.266;2022-11-15T16:24:32;13.10;99.90
54082;DHT22;39986;50.770;0.266;2022-11-15T16:27:00;13.10;99.90
54082;DHT22;39986;50.770;0.266;2022-11-15T16:29:26;13.00;99.90
54082;DHT22;39986;50.770;0.266;2022-11-15T16:31:54;12.70;99.90
54082;DHT22;39986;50.770;0.266;2022-11-15T16:34:19;13.10;99.90
54082;DHT22;39986;50.770;0.266;2022-11-15T16:36:45;13.10;99.90
54082;DHT22;39986;50.770;0.266;2022-11-15T16:39:13;13.20;99.90
54082;DHT22;39986;50.770;0.266;2022-11-15T16:41:40;13.20;99.90
54082;DHT22;39986;50.770;0.266;2022-11-15T16:44:09;13.30;99.90
54082;DHT22;39986;50.770;0.266;2022-11-15T16:46:37;13.30;99.90
54082;DHT22;39986;50.770;0.266;2022-11-15T16:49:08;13.30;99.90
54082;DHT22;39986;50.770;0.266;2022-11-15T16:51:36;13.40;99.90
54082;DHT22;39986;50.770;0.266;2022-11-15T16:54:10;13.40;99.90
54082;DHT22;39986;50.770;0.266;2022-11-15T16:56:36;13.80;99.90
54082;DHT22;39986;50.770;0.266;2022-11-15T16:59:03;13.60;99.90
54082;DHT22;39986;50.770;0.266;2022-11-15T17:01:33;13.80;99.90
54082;DHT22;39986;50.770;0.266;2022-11-15T17:04:21;14.00;99.90
54082;DHT22;39986;50.770;0.266;2022-11-15T17:06:49;13.80;99.90
54082;DHT22;39986;50.770;0.266;2022-11-15T17:09:19;12.10;99.90
54082;DHT22;39986;50.770;0.266;2022-11-15T17:11:45;13.90;99.90
54082;DHT22;39986;50.770;0.266;2022-11-15T17:14:11;13.80;99.90
54082;DHT22;39986;50.770;0.266;2022-11-15T17:16:40;13.80;99.90
54082;DHT22;39986;50.770;0.266;2022-11-15T17:19:12;13.30;99.90
54082;DHT22;39986;50.770;0.266;2022-11-15T17:21:41;12.50;99.90
54082;DHT22;39986;50.770;0.266;2022-11-15T17:24:10;13.30;99.90
54082;DHT22;39986;50.770;0.266;2022-11-15T17:26:36;11.70;99.90
54082;DHT22;39986;50.770;0.266;2022-11-15T17:29:05;12.10;99.90
54082;DHT22;39986;50.770;0.266;2022-11-15T17:31:33;11.40;99.90
54082;DHT22;39986;50.770;0.266;2022-11-15T17:34:01;11.40;99.90
54082;DHT22;39986;50.770;0.266;2022-11-15T17:36:29;11.30;99.90
54082;DHT22;39986;50.770;0.266;2022-11-15T17:38:57;11.40;99.90
54082;DHT22;39986;50.770;0.266;2022-11-15T17:41:22;11.40;99.90